Weathercam Coevorden Meer informatie Weathercam Coevorden



Het weer levert geen direct gevaar op.    Er zijn geen waarschuwingen afgegeven.

METAR rapporten vliegvelden

   
EHVK - Volkel Rnlafb, Netherlands
Afstand tot: ZW 18 km
Gewijzigd: 03-04-2020 10:25
Grotendeels bewolkt  
Grotendeels bewolkt  
   Wind: Westen 14.8 km/h
Wind: Westen 14.8 km/h
Temperatuur: 9°C
Voelt als: 7°C
Dauwpunt: 5°C
Vochtigheid: 76%
Barometer: 1014 hPa
Bewolking: Grotendeels bewolkt
Zicht: meer dan 10 km
Bewolking: Gedeeltelijk bewolkt 457.2 m,
Grotendeels bewolkt 579.1 m,
Grotendeels bewolkt 670.6 m
EHVK 030825Z AUTO 27008KT 220V300 9999 SCT015 BKN019 BKN022 09/05 Q1014 WHT 26005KT 9999 FEW015 SCT045 BKN060
EDLV - Niederrhein, Germany
Afstand tot: ZO 25 km
Gewijzigd: 02-04-2020 17:20
Verouderd
Grotendeels bewolkt  
Grotendeels bewolkt  
   Wind: WZW 16.7 km/h
Wind: WZW 16.7 km/h
Temperatuur: 10°C
Voelt als: 8°C
Dauwpunt: 1°C
Vochtigheid: 54%
Barometer: 1011 hPa
Bewolking: Grotendeels bewolkt
Zicht: meer dan 10 km
Bewolking: Grotendeels bewolkt 1249.7 m
EDLV 021520Z 25009KT 9999 BKN041 10/01 Q1011
EHDL - Deelen Rnlafb, Netherlands
Afstand tot: N 35 km
Gewijzigd: 03-04-2020 10:25
Bewolking  
Bewolking  
   Wind: varieert 1.9 km/h
Wind: varieert 1.9 km/h
Temperatuur: 8°C
Dauwpunt: 5°C
Vochtigheid: 82%
Barometer: 1014 hPa
Bewolking: Bewolking
Zicht: meer dan 10 km
Bewolking: Grotendeels bewolkt 1676.4 m,
Bewolking 1859.3 m
EHDL 030825Z AUTO VRB01KT 9999 BKN055 OVC061 08/05 Q1014 BLU
EHEH - Eindhoven Rnlafb, Netherlands
Afstand tot: ZW 48 km
Gewijzigd: 03-04-2020 10:25
Bewolking  
Bewolking  
   Wind: Westen 14.8 km/h
Wind: Westen 14.8 km/h
Temperatuur: 9°C
Voelt als: 7°C
Dauwpunt: 5°C
Vochtigheid: 76%
Barometer: 1015 hPa
Bewolking: Bewolking
Zicht: meer dan 10 km
Bewolking: Licht bewolkt 518.2 m,
Bewolking 1706.9 m
EHEH 030825Z AUTO 27008KT 230V310 9999 FEW017 OVC056 09/05 Q1015 BLU 27007KT 9999 FEW016 SCT035 BKN045
EHGR - Gilze-Rijen Rnla, Netherlands
Afstand tot: WZW 70 km
Gewijzigd: 03-04-2020 10:25
Grotendeels bewolkt  
Grotendeels bewolkt  
   Wind: Westen 20.4 km/h
Wind: Westen 20.4 km/h
Temperatuur: 9°C
Voelt als: 6°C
Dauwpunt: 4°C
Vochtigheid: 71%
Barometer: 1015 hPa
Bewolking: Grotendeels bewolkt
Zicht: meer dan 10 km
Bewolking: Licht bewolkt 518.2 m,
Gedeeltelijk bewolkt 640.1 m,
Grotendeels bewolkt 975.4 m
EHGR 030825Z AUTO 28011KT 250V310 9999 FEW017 SCT021 BKN032 09/04 Q1015 WHT 27010KT 9999 FEW018 SCT022 BKN032 TEMPO 29012G22KT
EBBL - Kleine-Brogel(Ba, Belgium
Afstand tot: ZZW 71 km
Gewijzigd: 03-04-2020 10:06
Gedeeltelijk bewolkt  
Gedeeltelijk bewolkt  
   Wind: Westen 13 km/h
Wind: Westen 13 km/h
Temperatuur: 9°C
Voelt als: 7°C
Dauwpunt: 4°C
Vochtigheid: 71%
Barometer: 1015 hPa
Bewolking: Gedeeltelijk bewolkt
Zicht: meer dan 10 km
Bewolking: Gedeeltelijk bewolkt 640.1 m
EBBL 030806Z AUTO 27007KT 9999 SCT021/// 09/04 Q1015 WHT

Script ontwikkeld door  Saratoga-weather.org Aangepast voor de template door  Weerstation Leuven